Leesburg, Ohio
Current Conditions -  °F | °C
As of 1:54 AM on Friday 28 Nov 2014 (Local Time) from KILN Reporting Station
Light Snow Light Snow  
Wind Chill: 16°   Ceiling: 3800
Heat Index: 25°   Visibility: 6mi
Dew Point: 18°   Wind: 9mph
Humidity: 75%   Direction: 270°W
Pressure: 30.35"   Gusts: NA
Location:  39.35°N, 83.55°W
Report Text: KILN 280654Z AUTO 27008KT 6SM -SN OVC038 M04/M08 A3035 RMK AO2 SLP306 P0000 T10391078
Loading
Personal Weather Stations






























Interactive Weather Map New forecast layout! Learn more

10-Day Weather Forecast

Advertisements
Track Severe Weather on mobile